Time;durP1;ratioP1;P1;durP2;ratioP2;P2;SDS_P1;SDS_P2;PMS_P1;PMS_P2;Temp;Humidity;BMP_temperature;BMP_pressure;BME280_temperature;BME280_humidity;BME280_pressure;Samples;Min_cycle;Max_cycle;Signal;HPM_P1;HPM_P2
2023/09/21 00:01:23;;;;;;;0.00;0.00;;;21.60;43.30;;;;;;5071251;28;20240;-59
2023/09/21 00:03:54;;;;;;;0.00;0.00;;;21.60;43.30;;;;;;5070450;28;20267;-58
2023/09/21 00:06:25;;;;;;;0.00;0.00;;;21.60;43.30;;;;;;5073193;28;20198;-59
2023/09/21 00:08:56;;;;;;;0.00;0.00;;;21.70;43.30;;;;;;5074344;28;20670;-59
2023/09/21 00:11:26;;;;;;;0.03;0.03;;;21.60;43.20;;;;;;5074392;28;20709;-59
2023/09/21 00:13:57;;;;;;;0.00;0.00;;;21.70;43.20;;;;;;5074212;28;20557;-58
2023/09/21 00:16:30;;;;;;;0.00;0.00;;;21.70;43.20;;;;;;5073992;28;20187;-58
2023/09/21 00:19:02;;;;;;;0.00;0.00;;;21.70;43.20;;;;;;5074581;28;20199;-60
2023/09/21 00:21:34;;;;;;;0.00;0.00;;;21.70;43.20;;;;;;5074721;28;20222;-58
2023/09/21 00:24:05;;;;;;;0.00;0.00;;;21.70;43.20;;;;;;5074545;28;20199;-58
2023/09/21 00:26:36;;;;;;;0.00;0.00;;;21.70;43.10;;;;;;5073879;28;20202;-59
2023/09/21 00:29:07;;;;;;;0.00;0.00;;;21.80;43.10;;;;;;5074376;28;20682;-58
2023/09/21 00:31:40;;;;;;;0.00;0.00;;;21.80;43.10;;;;;;5074135;28;20642;-59
2023/09/21 00:34:11;;;;;;;0.00;0.00;;;21.80;43.00;;;;;;5073519;28;20665;-58
2023/09/21 00:36:44;;;;;;;0.00;0.00;;;21.80;43.00;;;;;;5074746;28;20202;-58
2023/09/21 00:39:15;;;;;;;0.00;0.00;;;21.90;43.20;;;;;;5074604;28;20195;-58
2023/09/21 00:41:47;;;;;;;0.00;0.00;;;21.80;43.20;;;;;;5073078;28;20222;-58
2023/09/21 00:44:22;;;;;;;0.00;0.00;;;21.90;43.80;;;;;;5073258;28;20206;-58
2023/09/21 00:46:54;;;;;;;0.00;0.00;;;21.90;43.20;;;;;;5073152;28;20277;-58
2023/09/21 00:49:26;;;;;;;0.00;0.00;;;21.90;43.10;;;;;;5073818;28;20225;-59
2023/09/21 00:51:57;;;;;;;0.00;0.00;;;22.00;43.20;;;;;;5073959;28;20695;-59
2023/09/21 00:54:28;;;;;;;0.00;0.00;;;22.00;43.10;;;;;;5072926;28;20194;-58
2023/09/21 00:56:59;;;;;;;0.00;0.00;;;22.00;43.10;;;;;;5073764;28;20661;-59
2023/09/21 00:59:35;;;;;;;0.10;0.10;;;22.00;43.10;;;;;;5072999;28;20214;-58
2023/09/21 01:02:08;;;;;;;0.00;0.00;;;22.00;43.10;;;;;;5074310;28;20293;-58
2023/09/21 01:04:39;;;;;;;0.03;0.03;;;22.10;43.00;;;;;;5072559;28;20209;-58
2023/09/21 01:07:20;;;;;;;0.00;0.00;;;22.10;43.10;;;;;;5073098;28;20202;-59
2023/09/21 01:09:52;;;;;;;0.00;0.00;;;22.10;43.00;;;;;;5073435;28;20217;-58
2023/09/21 01:12:23;;;;;;;0.10;0.10;;;22.10;43.00;;;;;;5073637;28;20449;-59
2023/09/21 01:15:10;;;;;;;0.00;0.00;;;22.10;42.90;;;;;;5074031;28;20191;-58
2023/09/21 01:17:43;;;;;;;0.00;0.00;;;22.10;42.90;;;;;;5072078;28;20278;-58
2023/09/21 01:20:22;;;;;;;0.00;0.00;;;22.20;42.90;;;;;;5072406;28;20315;-58
2023/09/21 01:23:11;;;;;;;0.00;0.00;;;22.20;42.90;;;;;;5073317;28;20194;-59
2023/09/21 01:25:45;;;;;;;0.00;0.00;;;22.20;42.80;;;;;;5073102;28;20193;-58
2023/09/21 01:28:18;;;;;;;0.00;0.00;;;22.20;42.80;;;;;;5072810;28;20692;-58
2023/09/21 01:30:51;;;;;;;0.00;0.00;;;22.20;42.80;;;;;;5072362;28;20682;-58
2023/09/21 01:33:23;;;;;;;0.00;0.00;;;22.20;42.70;;;;;;5072863;28;20199;-58
2023/09/21 01:35:53;;;;;;;0.00;0.00;;;22.20;42.80;;;;;;5072894;28;20203;-59
2023/09/21 01:38:25;;;;;;;0.00;0.00;;;22.30;42.70;;;;;;5073254;28;20244;-58
2023/09/21 01:40:59;;;;;;;0.00;0.00;;;22.30;42.70;;;;;;5072921;28;20268;-58
2023/09/21 01:43:30;;;;;;;0.00;0.00;;;22.30;42.70;;;;;;5072722;28;20361;-59
2023/09/21 01:46:00;;;;;;;0.00;0.00;;;22.30;42.60;;;;;;5071428;28;20286;-60
2023/09/21 01:48:32;;;;;;;0.00;0.00;;;22.30;42.60;;;;;;5073409;28;20646;-58
2023/09/21 01:51:03;;;;;;;0.00;0.00;;;22.40;42.60;;;;;;5072612;28;20223;-58
2023/09/21 01:53:35;;;;;;;0.00;0.00;;;22.40;42.60;;;;;;5072516;28;20570;-59
2023/09/21 01:56:09;;;;;;;0.10;0.10;;;22.30;42.50;;;;;;5072708;28;20197;-59
2023/09/21 01:58:39;;;;;;;0.00;0.00;;;22.40;42.50;;;;;;5072470;28;20199;-59
2023/09/21 02:01:10;;;;;;;0.00;0.00;;;22.40;42.30;;;;;;5071996;28;20222;-59
2023/09/21 02:03:41;;;;;;;0.00;0.00;;;22.40;42.30;;;;;;5072360;28;20199;-58
2023/09/21 02:06:12;;;;;;;0.00;0.00;;;22.40;42.20;;;;;;5072442;28;20206;-60
2023/09/21 02:08:42;;;;;;;0.00;0.00;;;22.40;42.20;;;;;;5072560;28;20651;-59
2023/09/21 02:11:15;;;;;;;0.00;0.00;;;22.50;42.20;;;;;;5072707;28;20230;-59
2023/09/21 02:13:46;;;;;;;0.00;0.00;;;22.50;42.10;;;;;;5071857;28;20237;-60
2023/09/21 02:16:16;;;;;;;0.00;0.00;;;22.50;42.10;;;;;;5072024;28;20643;-58
2023/09/21 02:18:47;;;;;;;0.00;0.00;;;22.50;42.10;;;;;;5072474;28;20199;-60
2023/09/21 02:21:19;;;;;;;0.00;0.00;;;22.50;42.10;;;;;;5071714;28;20219;-58
2023/09/21 02:23:50;;;;;;;0.00;0.00;;;22.50;42.00;;;;;;5072788;28;20238;-59
2023/09/21 02:26:22;;;;;;;0.00;0.00;;;22.50;42.00;;;;;;5072746;28;20195;-58
2023/09/21 02:28:53;;;;;;;0.10;0.10;;;22.50;41.90;;;;;;5072643;28;20233;-58
2023/09/21 02:31:24;;;;;;;0.00;0.00;;;22.60;42.00;;;;;;5072483;28;20234;-58
2023/09/21 02:33:54;;;;;;;0.00;0.00;;;22.60;41.90;;;;;;5072651;28;20287;-59
2023/09/21 02:36:25;;;;;;;0.00;0.00;;;22.60;41.90;;;;;;5072383;28;20610;-59
2023/09/21 02:38:56;;;;;;;0.00;0.00;;;22.60;41.80;;;;;;5072880;28;20638;-59
2023/09/21 02:41:28;;;;;;;0.00;0.00;;;22.60;41.80;;;;;;5072065;28;20227;-58
2023/09/21 02:43:59;;;;;;;0.00;0.00;;;22.60;41.80;;;;;;5071815;28;20198;-59
2023/09/21 02:46:30;;;;;;;0.00;0.00;;;22.60;41.60;;;;;;5072276;28;20202;-59
2023/09/21 02:49:00;;;;;;;0.10;0.10;;;22.70;41.60;;;;;;5072472;28;20226;-58
2023/09/21 02:51:31;;;;;;;0.00;0.00;;;22.60;41.40;;;;;;5072085;28;20690;-59
2023/09/21 02:54:03;;;;;;;0.00;0.00;;;22.70;41.40;;;;;;5072296;28;20214;-59
2023/09/21 02:56:36;;;;;;;0.00;0.00;;;22.70;41.40;;;;;;5071555;28;20203;-58
2023/09/21 02:59:07;;;;;;;0.00;0.00;;;22.70;41.40;;;;;;5072307;28;20677;-58
2023/09/21 03:01:45;;;;;;;0.00;0.00;;;22.70;41.50;;;;;;5071988;28;20255;-59
2023/09/21 03:04:15;;;;;;;0.00;0.00;;;22.70;41.50;;;;;;5071792;28;20226;-59
2023/09/21 03:06:46;;;;;;;0.00;0.00;;;22.80;41.60;;;;;;5071807;28;20574;-59
2023/09/21 03:09:17;;;;;;;0.00;0.00;;;22.70;41.50;;;;;;5071862;28;20198;-59
2023/09/21 03:11:49;;;;;;;0.00;0.00;;;22.80;41.80;;;;;;5071345;28;20724;-59
2023/09/21 03:14:20;;;;;;;0.00;0.00;;;22.80;41.50;;;;;;5071951;28;20195;-59
2023/09/21 03:16:51;;;;;;;0.00;0.00;;;22.90;41.50;;;;;;5072119;28;20195;-59
2023/09/21 03:19:22;;;;;;;0.00;0.00;;;22.80;41.40;;;;;;5072230;28;20195;-59
2023/09/21 03:21:52;;;;;;;0.00;0.00;;;22.90;41.50;;;;;;5071785;28;20642;-60
2023/09/21 03:24:24;;;;;;;0.00;0.00;;;22.90;41.40;;;;;;5071830;28;20198;-59
2023/09/21 03:26:56;;;;;;;0.00;0.00;;;22.80;41.30;;;;;;5071207;28;20202;-59
2023/09/21 03:29:27;;;;;;;0.00;0.00;;;22.80;41.20;;;;;;5051641;28;20187;-59
2023/09/21 03:31:57;;;;;;;0.00;0.00;;;22.90;41.30;;;;;;5050479;28;20564;-58
2023/09/21 03:34:28;;;;;;;0.00;0.00;;;22.90;41.20;;;;;;5054389;28;20203;-59
2023/09/21 03:36:59;;;;;;;0.00;0.00;;;22.90;41.10;;;;;;5071114;28;20194;-59
2023/09/21 03:39:29;;;;;;;0.00;0.00;;;22.90;41.10;;;;;;5070434;28;20372;-60
2023/09/21 03:42:03;;;;;;;0.00;0.00;;;23.00;41.20;;;;;;5068230;28;20682;-58
2023/09/21 03:44:34;;;;;;;0.00;0.00;;;23.00;41.10;;;;;;5070308;28;20255;-58
2023/09/21 03:47:05;;;;;;;0.00;0.00;;;23.00;41.20;;;;;;5069566;28;20238;-59
2023/09/21 03:49:36;;;;;;;0.00;0.00;;;23.00;41.20;;;;;;5071075;28;20202;-58
2023/09/21 03:52:06;;;;;;;0.00;0.00;;;23.00;41.20;;;;;;5071111;28;20705;-60
2023/09/21 03:54:37;;;;;;;0.00;0.00;;;23.00;41.30;;;;;;5069835;28;20191;-59
2023/09/21 03:57:11;;;;;;;0.03;0.03;;;23.00;41.20;;;;;;5070780;28;20250;-59
2023/09/21 03:59:41;;;;;;;0.00;0.00;;;23.00;41.20;;;;;;5070085;28;20733;-59
2023/09/21 04:02:12;;;;;;;0.00;0.00;;;23.10;41.30;;;;;;5070599;28;20207;-59
2023/09/21 04:04:44;;;;;;;0.00;0.00;;;23.00;41.30;;;;;;5070614;28;20198;-58
2023/09/21 04:07:17;;;;;;;0.00;0.00;;;23.10;41.30;;;;;;5071192;28;20194;-60
2023/09/21 04:09:48;;;;;;;0.00;0.00;;;23.10;41.30;;;;;;5070283;28;20191;-60
2023/09/21 04:12:20;;;;;;;0.00;0.00;;;23.10;41.40;;;;;;5070987;28;20601;-60
2023/09/21 04:14:51;;;;;;;0.00;0.00;;;23.10;41.40;;;;;;5072369;28;20685;-59
2023/09/21 04:17:22;;;;;;;0.00;0.00;;;23.10;41.20;;;;;;5072758;28;20194;-59
2023/09/21 04:19:55;;;;;;;0.08;0.08;;;23.10;41.20;;;;;;5071618;28;20199;-59
2023/09/21 04:22:26;;;;;;;0.00;0.00;;;23.10;41.10;;;;;;5070511;28;20187;-60
2023/09/21 04:25:01;;;;;;;0.00;0.00;;;23.10;41.10;;;;;;5070241;28;20191;-59
2023/09/21 04:27:34;;;;;;;0.00;0.00;;;23.10;41.00;;;;;;5069940;28;20260;-58
2023/09/21 04:30:06;;;;;;;0.00;0.00;;;23.10;41.00;;;;;;5070182;28;20219;-59
2023/09/21 04:32:38;;;;;;;0.10;0.10;;;23.10;41.00;;;;;;5069383;28;20187;-59
2023/09/21 04:35:10;;;;;;;0.00;0.00;;;23.10;41.00;;;;;;5070758;28;20205;-60
2023/09/21 04:37:40;;;;;;;0.05;0.05;;;23.10;41.00;;;;;;5069533;28;20595;-59
2023/09/21 04:40:12;;;;;;;0.00;0.00;;;23.10;41.00;;;;;;5070638;28;20207;-60
2023/09/21 04:42:47;;;;;;;0.00;0.00;;;23.10;41.00;;;;;;5070118;28;20198;-60
2023/09/21 04:45:18;;;;;;;0.00;0.00;;;23.10;41.00;;;;;;5069664;28;20233;-60
2023/09/21 04:47:52;;;;;;;0.00;0.00;;;23.10;41.00;;;;;;5070788;28;20187;-59
2023/09/21 04:50:23;;;;;;;0.00;0.00;;;23.10;41.10;;;;;;5070659;28;20750;-59
2023/09/21 04:52:53;;;;;;;0.10;0.10;;;23.10;41.10;;;;;;5070680;28;20203;-58
2023/09/21 04:55:25;;;;;;;0.00;0.00;;;23.10;41.10;;;;;;5073535;28;20662;-58
2023/09/21 04:57:57;;;;;;;0.10;0.10;;;23.20;41.00;;;;;;5059195;28;20595;-59
2023/09/21 05:00:28;;;;;;;0.00;0.00;;;23.20;40.70;;;;;;5072787;28;20290;-60
2023/09/21 05:02:59;;;;;;;0.00;0.00;;;23.20;40.60;;;;;;5073342;28;20199;-58
2023/09/21 05:05:30;;;;;;;0.00;0.00;;;23.20;40.60;;;;;;5064727;28;20286;-60
2023/09/21 05:08:03;;;;;;;0.05;0.05;;;23.20;40.60;;;;;;5073755;28;20191;-59
2023/09/21 05:10:34;;;;;;;0.00;0.00;;;23.20;40.50;;;;;;5082230;28;20761;-59
2023/09/21 05:13:06;;;;;;;0.00;0.00;;;23.30;40.50;;;;;;5086128;28;20179;-59
2023/09/21 05:15:37;;;;;;;0.00;0.00;;;23.30;40.40;;;;;;5072544;28;20202;-59
2023/09/21 05:18:08;;;;;;;0.00;0.00;;;23.30;40.40;;;;;;5072074;28;20191;-58
2023/09/21 05:20:40;;;;;;;0.00;0.00;;;23.30;40.40;;;;;;5073424;28;20272;-58
2023/09/21 05:23:10;;;;;;;0.00;0.00;;;23.30;40.30;;;;;;5072678;28;20187;-58
2023/09/21 05:25:41;;;;;;;0.00;0.00;;;23.30;40.20;;;;;;5072859;28;20195;-58
2023/09/21 05:28:16;;;;;;;0.00;0.00;;;23.30;40.20;;;;;;5072773;28;20191;-58
2023/09/21 05:30:49;;;;;;;0.00;0.00;;;23.40;40.30;;;;;;5072300;28;20696;-58
2023/09/21 05:33:19;;;;;;;0.03;0.03;;;23.40;40.30;;;;;;5072948;28;20198;-58
2023/09/21 05:35:55;;;;;;;0.00;0.00;;;23.40;40.40;;;;;;5073210;28;20261;-58
2023/09/21 05:38:25;;;;;;;0.00;0.00;;;23.40;40.50;;;;;;5072648;28;20190;-58
2023/09/21 05:40:56;;;;;;;0.00;0.00;;;23.40;40.50;;;;;;5072628;28;20219;-58
2023/09/21 05:43:29;;;;;;;0.00;0.00;;;23.40;40.50;;;;;;5073326;28;20643;-58
2023/09/21 05:46:00;;;;;;;0.00;0.00;;;23.40;40.50;;;;;;5072604;28;20286;-58
2023/09/21 05:48:31;;;;;;;0.00;0.00;;;23.40;40.60;;;;;;5072232;28;20570;-58
2023/09/21 05:51:01;;;;;;;0.00;0.00;;;23.40;40.50;;;;;;5070934;28;20226;-58
2023/09/21 05:53:32;;;;;;;0.00;0.00;;;23.40;40.50;;;;;;5071912;28;20199;-59
2023/09/21 05:56:04;;;;;;;0.00;0.00;;;23.40;40.50;;;;;;5072643;28;20206;-57
2023/09/21 05:58:36;;;;;;;0.00;0.00;;;23.40;40.50;;;;;;5068192;28;20521;-58
2023/09/21 06:01:07;;;;;;;0.00;0.00;;;23.40;40.60;;;;;;5069409;28;20218;-58
2023/09/21 06:03:38;;;;;;;0.00;0.00;;;23.40;40.60;;;;;;5072274;28;20187;-59
2023/09/21 06:06:09;;;;;;;0.00;0.00;;;23.40;40.60;;;;;;5071398;28;20195;-58
2023/09/21 06:08:40;;;;;;;0.00;0.00;;;23.40;40.50;;;;;;5072179;28;20198;-58
2023/09/21 06:11:10;;;;;;;0.00;0.00;;;23.40;40.50;;;;;;5072038;28;20222;-58
2023/09/21 06:13:43;;;;;;;0.00;0.00;;;23.40;40.40;;;;;;5072701;28;20199;-58
2023/09/21 06:16:13;;;;;;;0.00;0.00;;;23.40;40.20;;;;;;5072221;28;20191;-58
2023/09/21 06:18:44;;;;;;;0.00;0.00;;;23.40;40.10;;;;;;5072203;28;20248;-58
2023/09/21 06:21:14;;;;;;;0.00;0.00;;;23.40;40.10;;;;;;5071438;28;20215;-58
2023/09/21 06:23:45;;;;;;;0.05;0.05;;;23.40;40.00;;;;;;5071539;28;20203;-58
2023/09/21 06:26:16;;;;;;;0.00;0.00;;;23.40;40.00;;;;;;5072068;28;20191;-58
2023/09/21 06:28:49;;;;;;;0.00;0.00;;;23.40;39.90;;;;;;5072460;28;20239;-58
2023/09/21 06:31:20;;;;;;;0.00;0.00;;;23.30;39.80;;;;;;5072053;28;20292;-58
2023/09/21 06:33:52;;;;;;;0.00;0.00;;;23.30;39.70;;;;;;5071640;28;20228;-58
2023/09/21 06:36:22;;;;;;;0.00;0.00;;;23.30;39.70;;;;;;5069953;28;20666;-58
2023/09/21 06:38:53;;;;;;;0.00;0.00;;;23.30;39.60;;;;;;5071722;28;20646;-59
2023/09/21 06:41:24;;;;;;;0.00;0.00;;;23.30;39.70;;;;;;5068499;28;20620;-58
2023/09/21 06:43:56;;;;;;;0.00;0.00;;;23.30;39.80;;;;;;5051496;28;20588;-58
2023/09/21 06:46:27;;;;;;;0.00;0.00;;;23.30;39.80;;;;;;5057976;28;20547;-58
2023/09/21 06:48:57;;;;;;;0.00;0.00;;;23.30;39.80;;;;;;5070765;28;20260;-57
2023/09/21 06:51:28;;;;;;;0.00;0.00;;;23.30;39.80;;;;;;5071502;28;20335;-58
2023/09/21 06:54:00;;;;;;;0.00;0.00;;;23.30;39.80;;;;;;5071568;28;20615;-58
2023/09/21 06:56:31;;;;;;;0.00;0.00;;;23.30;39.90;;;;;;5070082;28;20619;-58
2023/09/21 06:59:05;;;;;;;0.00;0.00;;;23.30;39.80;;;;;;5072397;28;20198;-58
2023/09/21 07:01:36;;;;;;;0.00;0.00;;;23.20;39.80;;;;;;5070066;28;20263;-58
2023/09/21 07:04:07;;;;;;;0.00;0.00;;;23.20;39.80;;;;;;5071941;28;20187;-58
2023/09/21 07:06:39;;;;;;;0.00;0.00;;;23.20;39.80;;;;;;5070430;28;20199;-57
2023/09/21 07:09:09;;;;;;;0.00;0.00;;;23.20;39.80;;;;;;5070500;28;20198;-58
2023/09/21 07:11:40;;;;;;;0.00;0.00;;;23.20;39.80;;;;;;5070742;28;20698;-58
2023/09/21 07:14:14;;;;;;;0.00;0.00;;;23.20;39.90;;;;;;5072017;28;20221;-59
2023/09/21 07:16:45;;;;;;;0.00;0.00;;;23.10;39.80;;;;;;5070043;28;20650;-58
2023/09/21 07:19:15;;;;;;;0.00;0.00;;;23.20;39.90;;;;;;5070854;28;20191;-57
2023/09/21 07:21:46;;;;;;;0.00;0.00;;;23.10;39.90;;;;;;5071324;28;20211;-58
2023/09/21 07:24:17;;;;;;;0.00;0.00;;;23.10;39.90;;;;;;5070918;28;20199;-58
2023/09/21 07:26:47;;;;;;;0.00;0.00;;;23.10;39.90;;;;;;5071315;28;20193;-58
2023/09/21 07:29:20;;;;;;;0.00;0.00;;;23.10;40.00;;;;;;5070266;28;20232;-58
2023/09/21 07:31:50;;;;;;;0.00;0.00;;;23.10;40.00;;;;;;5070336;28;20230;-58
2023/09/21 07:34:21;;;;;;;0.00;0.00;;;23.10;40.10;;;;;;5070376;28;20187;-58
2023/09/21 07:36:51;;;;;;;0.10;0.10;;;23.10;40.20;;;;;;5071844;28;20225;-59
2023/09/21 07:39:22;;;;;;;0.00;0.00;;;23.10;40.30;;;;;;5071172;28;20264;-58
2023/09/21 07:41:53;;;;;;;0.00;0.00;;;23.10;40.20;;;;;;5070917;28;20569;-58
2023/09/21 07:44:26;;;;;;;0.00;0.00;;;23.10;40.20;;;;;;5071964;28;20285;-58
2023/09/21 07:46:59;;;;;;;0.00;0.00;;;23.10;40.20;;;;;;5070674;28;20198;-55
2023/09/21 07:49:30;;;;;;;0.00;0.00;;;23.10;40.20;;;;;;5070794;28;20205;-58
2023/09/21 07:52:00;;;;;;;0.00;0.00;;;23.10;40.20;;;;;;5070260;28;20226;-57
2023/09/21 07:54:33;;;;;;;0.00;0.00;;;23.10;40.20;;;;;;5070984;28;20199;-58
2023/09/21 07:57:04;;;;;;;0.00;0.00;;;23.10;40.20;;;;;;5071192;28;20202;-58
2023/09/21 07:59:37;;;;;;;0.00;0.00;;;23.00;40.10;;;;;;5071189;28;20199;-58
2023/09/21 08:02:08;;;;;;;0.00;0.00;;;23.00;40.10;;;;;;5071266;28;20218;-58
2023/09/21 08:04:38;;;;;;;0.00;0.00;;;23.00;40.10;;;;;;5071344;28;20198;-59
2023/09/21 08:07:09;;;;;;;0.00;0.00;;;23.00;40.10;;;;;;5071539;28;20191;-58
2023/09/21 08:09:39;;;;;;;0.00;0.00;;;23.00;40.10;;;;;;5071130;28;20244;-58
2023/09/21 08:12:10;;;;;;;0.00;0.00;;;23.00;40.10;;;;;;5070841;28;20235;-58
2023/09/21 08:14:42;;;;;;;0.00;0.00;;;23.00;40.20;;;;;;5071340;28;20194;-58
2023/09/21 08:17:13;;;;;;;0.00;0.00;;;23.00;40.30;;;;;;5070779;28;20602;-58
2023/09/21 08:19:44;;;;;;;0.00;0.00;;;23.00;40.20;;;;;;5071011;28;20191;-58
2023/09/21 08:22:14;;;;;;;0.00;0.00;;;22.90;40.20;;;;;;5071126;28;20272;-58
2023/09/21 08:24:45;;;;;;;0.00;0.00;;;22.90;40.30;;;;;;5071241;28;20276;-58
2023/09/21 08:27:15;;;;;;;0.00;0.00;;;22.90;40.30;;;;;;5072683;28;20195;-58
2023/09/21 08:29:48;;;;;;;0.00;0.00;;;22.90;40.30;;;;;;5074915;28;20257;-58
2023/09/21 08:32:18;;;;;;;0.00;0.00;;;22.90;40.30;;;;;;5074188;28;20682;-58
2023/09/21 08:34:49;;;;;;;0.00;0.00;;;22.90;40.30;;;;;;5074205;28;20257;-58
2023/09/21 08:37:19;;;;;;;0.00;0.00;;;22.90;40.30;;;;;;5074360;28;20236;-57
2023/09/21 08:39:50;;;;;;;0.00;0.00;;;22.90;40.30;;;;;;5074607;28;20219;-59
2023/09/21 08:42:21;;;;;;;0.00;0.00;;;22.90;40.20;;;;;;5074164;28;20601;-57
2023/09/21 08:44:53;;;;;;;0.00;0.00;;;22.90;40.20;;;;;;5073982;28;20446;-58
2023/09/21 08:47:24;;;;;;;0.00;0.00;;;22.90;40.20;;;;;;5074544;28;20229;-58
2023/09/21 08:49:55;;;;;;;0.00;0.00;;;22.80;40.20;;;;;;5074379;28;20199;-58
2023/09/21 08:52:26;;;;;;;0.00;0.00;;;22.80;40.20;;;;;;5074272;28;20230;-58
2023/09/21 08:54:56;;;;;;;0.00;0.00;;;22.80;40.20;;;;;;5074257;28;20316;-55
2023/09/21 08:57:27;;;;;;;0.00;0.00;;;22.80;40.20;;;;;;5074420;28;20650;-57
2023/09/21 09:00:08;;;;;;;0.00;0.00;;;22.80;40.20;;;;;;5080848;28;20206;-56
2023/09/21 09:02:38;;;;;;;0.00;0.00;;;22.70;40.20;;;;;;5095269;28;20202;-58
2023/09/21 09:05:10;;;;;;;0.00;0.00;;;22.80;40.30;;;;;;5085520;28;20203;-58
2023/09/21 09:07:42;;;;;;;0.00;0.00;;;22.80;40.30;;;;;;5072745;28;20407;-58
2023/09/21 09:10:14;;;;;;;0.00;0.00;;;22.70;40.30;;;;;;5074309;28;20194;-53
2023/09/21 09:12:46;;;;;;;0.00;0.00;;;22.70;40.30;;;;;;5073581;28;20230;-55
2023/09/21 09:15:34;;;;;;;0.00;0.00;;;22.70;40.40;;;;;;5071115;28;20195;-55
2023/09/21 09:18:08;;;;;;;0.00;0.00;;;22.70;40.40;;;;;;5073621;28;20199;-58
2023/09/21 09:20:39;;;;;;;0.10;0.10;;;22.70;40.40;;;;;;5073440;28;20214;-58
2023/09/21 09:23:12;;;;;;;0.00;0.00;;;22.70;40.40;;;;;;5073892;28;20198;-58
2023/09/21 09:25:43;;;;;;;0.00;0.00;;;22.70;40.40;;;;;;5074081;28;20575;-58
2023/09/21 09:28:14;;;;;;;0.00;0.00;;;22.70;40.40;;;;;;5074031;28;20234;-58
2023/09/21 09:30:48;;;;;;;0.00;0.00;;;22.70;40.40;;;;;;5073983;28;20284;-58
2023/09/21 09:33:25;;;;;;;0.00;0.00;;;22.70;40.40;;;;;;5073468;28;20224;-58
2023/09/21 09:35:56;;;;;;;0.10;0.10;;;22.70;40.40;;;;;;5073916;28;20210;-56
2023/09/21 09:38:26;;;;;;;0.00;0.00;;;22.60;40.40;;;;;;5072984;28;20206;-58
2023/09/21 09:41:00;;;;;;;0.00;0.00;;;22.70;40.50;;;;;;5073515;28;20717;-57
2023/09/21 09:43:33;;;;;;;0.00;0.00;;;22.60;40.40;;;;;;5073714;28;20202;-55
2023/09/21 09:46:10;;;;;;;0.00;0.00;;;22.60;40.50;;;;;;5073856;28;20198;-58
2023/09/21 09:48:43;;;;;;;0.00;0.00;;;22.60;40.60;;;;;;5073698;28;20194;-58
2023/09/21 09:51:19;;;;;;;0.00;0.00;;;22.60;40.50;;;;;;5073400;28;20219;-58
2023/09/21 09:53:51;;;;;;;0.00;0.00;;;22.60;40.60;;;;;;5072840;28;20575;-58
2023/09/21 09:56:22;;;;;;;0.00;0.00;;;22.60;40.60;;;;;;5073437;28;20533;-58
2023/09/21 09:58:57;;;;;;;0.00;0.00;;;22.60;40.60;;;;;;5072804;28;20563;-59
2023/09/21 10:01:29;;;;;;;0.00;0.00;;;22.60;40.60;;;;;;5072875;28;20257;-58
2023/09/21 10:04:01;;;;;;;0.00;0.00;;;22.60;40.60;;;;;;5069248;28;20199;-58
2023/09/21 10:06:32;;;;;;;0.00;0.00;;;22.60;40.60;;;;;;5072101;28;20209;-58
2023/09/21 10:09:10;;;;;;;0.00;0.00;;;22.50;40.50;;;;;;5072488;28;20659;-56
2023/09/21 10:11:44;;;;;;;0.00;0.00;;;22.60;40.60;;;;;;5072375;28;20207;-58
2023/09/21 10:14:16;;;;;;;0.00;0.00;;;22.50;40.50;;;;;;5072397;28;20245;-58
2023/09/21 10:16:57;;;;;;;0.00;0.00;;;22.50;40.50;;;;;;5073298;28;20198;-58
2023/09/21 10:19:29;;;;;;;0.00;0.00;;;22.50;40.50;;;;;;5072175;28;20282;-58
2023/09/21 10:22:03;;;;;;;0.00;0.00;;;22.50;40.50;;;;;;5072326;28;20214;-58
2023/09/21 10:24:34;;;;;;;0.00;0.00;;;22.50;40.60;;;;;;5051802;28;20546;-58
2023/09/21 10:27:06;;;;;;;0.00;0.00;;;22.50;40.60;;;;;;5051537;28;20195;-59
2023/09/21 10:29:38;;;;;;;0.00;0.00;;;22.50;40.60;;;;;;5052609;28;20242;-58
2023/09/21 10:32:11;;;;;;;0.00;0.00;;;22.50;40.60;;;;;;5071141;28;20318;-59
2023/09/21 10:34:48;;;;;;;0.00;0.00;;;22.40;40.60;;;;;;5071369;28;20520;-58
2023/09/21 10:37:26;;;;;;;0.00;0.00;;;22.40;40.60;;;;;;5071988;28;20198;-58
2023/09/21 10:40:02;;;;;;;0.00;0.00;;;22.40;40.60;;;;;;5072500;28;20195;-59
2023/09/21 10:42:36;;;;;;;0.00;0.00;;;22.40;40.70;;;;;;5071423;28;20194;-59
2023/09/21 10:45:10;;;;;;;0.00;0.00;;;22.40;40.70;;;;;;5071340;28;20198;-59
2023/09/21 10:47:50;;;;;;;0.00;0.00;;;22.40;40.70;;;;;;5070528;28;20230;-58
2023/09/21 10:50:21;;;;;;;0.00;0.00;;;22.40;40.70;;;;;;5071681;28;20301;-58
2023/09/21 10:52:55;;;;;;;0.00;0.00;;;22.40;40.70;;;;;;5071172;28;20576;-59
2023/09/21 10:55:26;;;;;;;0.00;0.00;;;22.40;40.70;;;;;;5071514;28;20274;-57
2023/09/21 10:58:00;;;;;;;0.00;0.00;;;22.40;40.70;;;;;;5071361;28;20646;-58
2023/09/21 11:00:31;;;;;;;0.00;0.00;;;22.40;41.30;;;;;;5070927;28;20229;-58
2023/09/21 11:03:04;;;;;;;0.00;0.00;;;22.30;40.60;;;;;;5072232;28;20278;-58
2023/09/21 11:05:35;;;;;;;0.00;0.00;;;22.40;40.70;;;;;;5071490;28;20755;-58
2023/09/21 11:08:06;;;;;;;0.00;0.00;;;22.30;40.60;;;;;;5071829;28;20642;-58
2023/09/21 11:10:37;;;;;;;0.00;0.00;;;22.30;40.60;;;;;;5070921;28;20682;-59
2023/09/21 11:13:10;;;;;;;0.03;0.03;;;22.30;40.70;;;;;;5071366;28;20250;-58
2023/09/21 11:15:41;;;;;;;0.00;0.00;;;22.30;40.70;;;;;;5070938;28;20198;-58
2023/09/21 11:18:14;;;;;;;0.00;0.00;;;22.30;40.70;;;;;;5070912;28;20237;-58
2023/09/21 11:20:45;;;;;;;0.00;0.00;;;22.30;40.70;;;;;;5070686;28;20268;-58
2023/09/21 11:23:16;;;;;;;0.05;0.05;;;22.30;40.70;;;;;;5070425;28;20191;-59
2023/09/21 11:25:49;;;;;;;0.00;0.00;;;22.30;40.70;;;;;;5071133;28;20202;-58
2023/09/21 11:28:22;;;;;;;0.00;0.00;;;22.30;40.80;;;;;;5070010;28;20198;-58
2023/09/21 11:30:56;;;;;;;0.00;0.00;;;22.30;40.70;;;;;;5071602;28;20219;-58
2023/09/21 11:33:29;;;;;;;0.00;0.00;;;22.30;40.70;;;;;;5070815;28;20678;-58
2023/09/21 11:36:00;;;;;;;0.00;0.00;;;22.30;40.70;;;;;;5071648;28;20199;-58
2023/09/21 11:38:33;;;;;;;0.10;0.10;;;22.20;40.70;;;;;;5071050;28;20186;-58
2023/09/21 11:41:05;;;;;;;0.00;0.00;;;22.20;40.60;;;;;;5071224;28;20221;-58
2023/09/21 11:43:36;;;;;;;0.00;0.00;;;22.20;40.70;;;;;;5070841;28;20196;-58
2023/09/21 11:46:07;;;;;;;0.10;0.10;;;22.20;40.70;;;;;;5071486;28;20194;-59
2023/09/21 11:48:40;;;;;;;0.00;0.00;;;22.20;40.60;;;;;;5071162;28;20194;-58
2023/09/21 11:51:11;;;;;;;0.00;0.00;;;22.20;40.70;;;;;;5069877;28;20309;-59
2023/09/21 11:53:44;;;;;;;0.00;0.00;;;22.20;40.70;;;;;;5070377;28;20226;-58
2023/09/21 11:56:17;;;;;;;0.05;0.05;;;22.20;40.70;;;;;;5071056;28;20199;-57
2023/09/21 11:58:48;;;;;;;0.10;0.10;;;22.20;40.70;;;;;;5071587;28;20201;-57
2023/09/21 12:01:22;;;;;;;0.00;0.00;;;22.20;40.70;;;;;;5071754;28;20231;-58
2023/09/21 12:03:56;;;;;;;0.00;0.00;;;22.20;40.70;;;;;;5075954;28;20194;-58
2023/09/21 12:06:27;;;;;;;0.00;0.00;;;22.10;40.70;;;;;;5075270;28;20205;-59
2023/09/21 12:08:58;;;;;;;0.00;0.00;;;22.10;40.80;;;;;;5075665;28;20644;-56
2023/09/21 12:11:29;;;;;;;0.00;0.00;;;22.10;40.80;;;;;;5075573;28;20222;-60
2023/09/21 12:14:04;;;;;;;0.00;0.00;;;22.10;40.80;;;;;;5075192;28;20226;-56
2023/09/21 12:16:35;;;;;;;0.00;0.00;;;22.10;40.80;;;;;;5075295;28;20198;-58
2023/09/21 12:19:08;;;;;;;0.00;0.00;;;22.10;40.80;;;;;;5075114;28;20662;-57
2023/09/21 12:21:40;;;;;;;0.00;0.00;;;22.10;40.80;;;;;;5074631;28;20687;-57
2023/09/21 12:24:10;;;;;;;0.00;0.00;;;22.10;40.70;;;;;;5075552;28;20660;-58
2023/09/21 12:26:41;;;;;;;0.00;0.00;;;22.10;40.80;;;;;;5075387;28;20199;-55
2023/09/21 12:29:15;;;;;;;0.10;0.10;;;22.10;40.70;;;;;;5074876;28;20199;-57
2023/09/21 12:31:45;;;;;;;0.00;0.00;;;22.10;40.80;;;;;;5075247;28;20678;-57
2023/09/21 12:34:19;;;;;;;0.00;0.00;;;22.10;40.70;;;;;;5074935;28;20230;-56
2023/09/21 12:36:52;;;;;;;0.00;0.00;;;22.10;40.80;;;;;;5075154;28;20558;-58
2023/09/21 12:39:24;;;;;;;0.00;0.00;;;22.10;40.70;;;;;;5075331;28;20202;-58
2023/09/21 12:41:55;;;;;;;0.00;0.00;;;22.10;40.80;;;;;;5074553;28;20699;-57
2023/09/21 12:44:25;;;;;;;0.00;0.00;;;22.00;40.80;;;;;;5074904;28;20674;-59
2023/09/21 12:46:57;;;;;;;0.00;0.00;;;22.00;40.80;;;;;;5074873;28;20196;-55
2023/09/21 12:49:30;;;;;;;0.00;0.00;;;22.00;40.80;;;;;;5074356;28;20199;-55
2023/09/21 12:52:00;;;;;;;0.00;0.00;;;22.00;40.80;;;;;;5073978;28;20222;-57
2023/09/21 12:54:31;;;;;;;0.05;0.05;;;22.00;40.80;;;;;;5074295;28;20222;-57
2023/09/21 12:57:03;;;;;;;0.00;0.00;;;22.00;40.80;;;;;;5074397;28;20195;-54
2023/09/21 12:59:34;;;;;;;0.00;0.00;;;22.00;40.80;;;;;;5074474;28;20712;-57
2023/09/21 13:02:04;;;;;;;0.00;0.00;;;22.00;40.90;;;;;;5071821;28;20211;-58
2023/09/21 13:04:37;;;;;;;0.00;0.00;;;22.00;40.80;;;;;;5074486;28;20655;-54
2023/09/21 13:07:08;;;;;;;0.00;0.00;;;22.00;40.80;;;;;;5074909;28;20198;-58
2023/09/21 13:09:38;;;;;;;0.00;0.00;;;22.00;40.80;;;;;;5074143;28;20228;-59
2023/09/21 13:12:09;;;;;;;0.00;0.00;;;22.00;40.80;;;;;;5073882;28;20223;-57